Wilson Norfolk — 9HA2466 — position and weather

sailwx.info

Track history (hours):
 
Tides and Currents Weather Stations Pressure Air Temp Water Temp Dewpoint Dewpoint Depression Visibility Wind Speed Wind Dir Waves Ship Positions

Wilson Norfolk

Last reported at 2016-Jun-27 21:33 UTC. Time now 2016-Jun-27 22:16 UTC.
Position N 36°05' W 005°21'.

Length 123 m; draft 5.3 m.

Type: Ship. MMSI: 248678000.

Date/timePositionNaut miles runAvg speedWind from/ knotsBaromVisibWave heightAir tempDewpointWater temp
2016-Jun-27 21:33N 36°05' W 005°21'3 3.0
2016-Jun-27 20:33N 36°05' W 005°18'1 0.9
2016-Jun-27 19:33N 36°05' W 005°16'2 1.6
2016-Jun-27 18:33N 36°05' W 005°14'19511.3
2016-Jun-27 01:18N 36°27' W 001°14'911.5
2016-Jun-27 00:33N 36°28' W 001°03'1111.2
2016-Jun-26 23:33N 36°30' W 000°49'1111.1
2016-Jun-26 22:32N 36°31' W 000°35'11811.7
2016-Jun-26 12:25N 36°50' E 001°50'4411.5
2016-Jun-26 08:33N 36°57' E 002°44'8812.2
2016-Jun-26 01:24N 37°10' E 004°33'25611.5
2016-Jun-25 03:03N 37°38' E 009°53'10511.0
2016-Jun-24 17:29N 37°14' E 012°02'1111.7
2016-Jun-24 16:33N 37°10' E 012°15'1111.0
2016-Jun-24 15:34N 37°06' E 012°28'1110.9
2016-Jun-24 14:33N 37°02' E 012°40'1110.7
2016-Jun-24 13:33N 36°58' E 012°53'1 0.9
2016-Jun-24 12:33N 36°57' E 012°53'6 0.6
2016-Jun-24 02:32N 36°52' E 012°51'2 1.6
2016-Jun-24 01:33N 36°53' E 012°52'2 1.7
2016-Jun-24 00:33N 36°55' E 012°54'2 1.7
2016-Jun-23 23:26N 36°56' E 012°55'8 1.2
2016-Jun-23 17:04N 36°60' E 013°03'4 7.2
2016-Jun-23 16:27N 36°56' E 013°06'3 1.3
2016-Jun-23 14:14N 36°59' E 013°05'1 1.3
2016-Jun-23 13:19N 36°60' E 013°05'3 0.4
2016-Jun-23 05:22N 36°60' E 013°01'0 0.2
2016-Jun-23 04:33N 37°00' E 013°01'0 0.2
2016-Jun-23 03:22N 37°00' E 013°01'1 0.7
2016-Jun-23 02:30N 37°00' E 013°00'3 0.9
2016-Jun-22 23:31N 36°59' E 012°57'1 0.7
2016-Jun-22 22:33N 36°59' E 012°56'0 0.2
2016-Jun-22 21:33N 36°59' E 012°56'1 0.5
2016-Jun-22 20:33N 36°59' E 012°57'0 0.3
2016-Jun-22 19:34N 36°59' E 012°57'1 0.5
2016-Jun-22 18:07N 36°59' E 012°58'0 0.6
2016-Jun-22 17:33N 36°59' E 012°58'0 0.2
2016-Jun-22 16:34N 36°59' E 012°58'0 0.5
2016-Jun-22 15:34N 36°59' E 012°57'0 0.3
2016-Jun-22 14:33N 36°59' E 012°57'0 0.4
2016-Jun-22 13:34N 36°59' E 012°57'1 0.5
2016-Jun-22 12:34N 36°60' E 012°56'0 0.3
2016-Jun-22 11:29N 37°00' E 012°56'8 7.6
2016-Jun-22 10:24N 37°08' E 012°58'  
2016-Jun-19 15:20N 37°15' E 013°30'0 0.0
2016-Jun-19 14:18N 37°15' E 013°30'0 0.0
2016-Jun-19 10:32N 37°15' E 013°30'0 0.0
2016-Jun-18 21:33N 37°15' E 013°30'55 9.3
2016-Jun-18 15:33N 37°34' E 012°25'1110.7
2016-Jun-18 14:33N 37°37' E 012°12'1210.7
2016-Jun-18 13:25N 37°43' E 011°58'8111.4
2016-Jun-18 06:18N 38°12' E 010°22'1112.1
2016-Jun-18 05:24N 38°16' E 010°09'2611.3
2016-Jun-18 03:07N 38°26' E 009°39'611.2
2016-Jun-18 02:32N 38°28' E 009°31'2210.8
2016-Jun-18 00:33N 38°36' E 009°06'1110.7
2016-Jun-17 23:33N 38°40' E 008°53'1110.7
2016-Jun-17 22:33N 38°44' E 008°40'  
Track history (hours):
 
Tides and Currents Weather Stations Pressure Air Temp Water Temp Dewpoint Dewpoint Depression Visibility Wind Speed Wind Dir Waves Ship Positions

Wilson Norfolk

Last reported at 2016-Jun-27 21:33 UTC. Time now 2016-Jun-27 22:16 UTC.
Position N 36°05' W 005°21'.

Length 123 m; draft 5.3 m.

Type: Ship. MMSI: 248678000.

Date/timePositionNaut miles runAvg speedWind from/ knotsBaromVisibWave heightAir tempDewpointWater temp
2016-Jun-27 21:33N 36°05' W 005°21'3 3.0
2016-Jun-27 20:33N 36°05' W 005°18'1 0.9
2016-Jun-27 19:33N 36°05' W 005°16'2 1.6
2016-Jun-27 18:33N 36°05' W 005°14'19511.3
2016-Jun-27 01:18N 36°27' W 001°14'911.5
2016-Jun-27 00:33N 36°28' W 001°03'1111.2
2016-Jun-26 23:33N 36°30' W 000°49'1111.1
2016-Jun-26 22:32N 36°31' W 000°35'11811.7
2016-Jun-26 12:25N 36°50' E 001°50'4411.5
2016-Jun-26 08:33N 36°57' E 002°44'8812.2
2016-Jun-26 01:24N 37°10' E 004°33'25611.5
2016-Jun-25 03:03N 37°38' E 009°53'10511.0
2016-Jun-24 17:29N 37°14' E 012°02'1111.7
2016-Jun-24 16:33N 37°10' E 012°15'1111.0
2016-Jun-24 15:34N 37°06' E 012°28'1110.9
2016-Jun-24 14:33N 37°02' E 012°40'1110.7
2016-Jun-24 13:33N 36°58' E 012°53'1 0.9
2016-Jun-24 12:33N 36°57' E 012°53'6 0.6
2016-Jun-24 02:32N 36°52' E 012°51'2 1.6
2016-Jun-24 01:33N 36°53' E 012°52'2 1.7
2016-Jun-24 00:33N 36°55' E 012°54'2 1.7
2016-Jun-23 23:26N 36°56' E 012°55'8 1.2
2016-Jun-23 17:04N 36°60' E 013°03'4 7.2
2016-Jun-23 16:27N 36°56' E 013°06'3 1.3
2016-Jun-23 14:14N 36°59' E 013°05'1 1.3
2016-Jun-23 13:19N 36°60' E 013°05'3 0.4
2016-Jun-23 05:22N 36°60' E 013°01'0 0.2
2016-Jun-23 04:33N 37°00' E 013°01'0 0.2
2016-Jun-23 03:22N 37°00' E 013°01'1 0.7
2016-Jun-23 02:30N 37°00' E 013°00'3 0.9
2016-Jun-22 23:31N 36°59' E 012°57'1 0.7
2016-Jun-22 22:33N 36°59' E 012°56'0 0.2
2016-Jun-22 21:33N 36°59' E 012°56'1 0.5
2016-Jun-22 20:33N 36°59' E 012°57'0 0.3
2016-Jun-22 19:34N 36°59' E 012°57'1 0.5
2016-Jun-22 18:07N 36°59' E 012°58'0 0.6
2016-Jun-22 17:33N 36°59' E 012°58'0 0.2
2016-Jun-22 16:34N 36°59' E 012°58'0 0.5
2016-Jun-22 15:34N 36°59' E 012°57'0 0.3
2016-Jun-22 14:33N 36°59' E 012°57'0 0.4
2016-Jun-22 13:34N 36°59' E 012°57'1 0.5
2016-Jun-22 12:34N 36°60' E 012°56'0 0.3
2016-Jun-22 11:29N 37°00' E 012°56'8 7.6
2016-Jun-22 10:24N 37°08' E 012°58'  
2016-Jun-19 15:20N 37°15' E 013°30'0 0.0
2016-Jun-19 14:18N 37°15' E 013°30'0 0.0
2016-Jun-19 10:32N 37°15' E 013°30'0 0.0
2016-Jun-18 21:33N 37°15' E 013°30'55 9.3
2016-Jun-18 15:33N 37°34' E 012°25'1110.7
2016-Jun-18 14:33N 37°37' E 012°12'1210.7
2016-Jun-18 13:25N 37°43' E 011°58'8111.4
2016-Jun-18 06:18N 38°12' E 010°22'1112.1
2016-Jun-18 05:24N 38°16' E 010°09'2611.3
2016-Jun-18 03:07N 38°26' E 009°39'611.2
2016-Jun-18 02:32N 38°28' E 009°31'2210.8
2016-Jun-18 00:33N 38°36' E 009°06'1110.7
2016-Jun-17 23:33N 38°40' E 008°53'1110.7
2016-Jun-17 22:33N 38°44' E 008°40'  

Dump ship's entire track history